sensor_id;sensor_type;location;lat;lon;timestamp;P1;durP1;ratioP1;P2;durP2;ratioP2
43706;SDS011;61348;53.392;-6.248;2023-01-19T00:00:51;7.10;;;4.45;;
43706;SDS011;61348;53.392;-6.248;2023-01-19T00:03:18;7.63;;;4.63;;
43706;SDS011;61348;53.392;-6.248;2023-01-19T00:05:44;10.60;;;4.53;;
43706;SDS011;61348;53.392;-6.248;2023-01-19T00:08:11;13.75;;;5.40;;
43706;SDS011;61348;53.392;-6.248;2023-01-19T00:10:43;7.93;;;5.28;;
43706;SDS011;61348;53.392;-6.248;2023-01-19T00:13:13;8.80;;;4.07;;
43706;SDS011;61348;53.392;-6.248;2023-01-19T00:15:40;16.08;;;5.63;;
43706;SDS011;61348;53.392;-6.248;2023-01-19T00:18:07;14.10;;;7.07;;
43706;SDS011;61348;53.392;-6.248;2023-01-19T00:20:36;8.25;;;4.93;;
43706;SDS011;61348;53.392;-6.248;2023-01-19T00:23:06;10.18;;;6.25;;
43706;SDS011;61348;53.392;-6.248;2023-01-19T00:25:34;14.38;;;7.43;;
43706;SDS011;61348;53.392;-6.248;2023-01-19T00:28:10;14.80;;;7.45;;
43706;SDS011;61348;53.392;-6.248;2023-01-19T00:30:37;19.10;;;8.27;;
43706;SDS011;61348;53.392;-6.248;2023-01-19T00:33:05;9.07;;;6.57;;
43706;SDS011;61348;53.392;-6.248;2023-01-19T00:35:32;15.63;;;6.88;;
43706;SDS011;61348;53.392;-6.248;2023-01-19T00:38:00;8.07;;;5.75;;
43706;SDS011;61348;53.392;-6.248;2023-01-19T00:40:28;9.40;;;6.18;;
43706;SDS011;61348;53.392;-6.248;2023-01-19T00:42:54;11.38;;;6.00;;
43706;SDS011;61348;53.392;-6.248;2023-01-19T00:45:22;9.20;;;6.32;;
43706;SDS011;61348;53.392;-6.248;2023-01-19T00:47:49;11.52;;;5.13;;
43706;SDS011;61348;53.392;-6.248;2023-01-19T00:50:22;10.38;;;4.82;;
43706;SDS011;61348;53.392;-6.248;2023-01-19T00:52:51;9.57;;;6.07;;
43706;SDS011;61348;53.392;-6.248;2023-01-19T00:55:19;7.35;;;4.40;;
43706;SDS011;61348;53.392;-6.248;2023-01-19T00:57:46;12.38;;;5.57;;
43706;SDS011;61348;53.392;-6.248;2023-01-19T01:00:16;9.90;;;5.22;;
43706;SDS011;61348;53.392;-6.248;2023-01-19T01:02:47;8.82;;;4.22;;
43706;SDS011;61348;53.392;-6.248;2023-01-19T01:05:15;10.43;;;4.78;;
43706;SDS011;61348;53.392;-6.248;2023-01-19T01:07:43;9.38;;;4.32;;
43706;SDS011;61348;53.392;-6.248;2023-01-19T01:10:11;12.00;;;3.70;;
43706;SDS011;61348;53.392;-6.248;2023-01-19T01:12:40;10.27;;;4.95;;
43706;SDS011;61348;53.392;-6.248;2023-01-19T01:15:25;9.55;;;4.05;;
43706;SDS011;61348;53.392;-6.248;2023-01-19T01:17:53;13.35;;;4.40;;
43706;SDS011;61348;53.392;-6.248;2023-01-19T01:20:21;14.70;;;4.82;;
43706;SDS011;61348;53.392;-6.248;2023-01-19T01:22:51;6.32;;;4.05;;
43706;SDS011;61348;53.392;-6.248;2023-01-19T01:25:19;8.88;;;4.03;;
43706;SDS011;61348;53.392;-6.248;2023-01-19T01:27:49;11.20;;;4.38;;
43706;SDS011;61348;53.392;-6.248;2023-01-19T01:30:16;15.30;;;4.95;;
43706;SDS011;61348;53.392;-6.248;2023-01-19T01:32:43;6.80;;;3.83;;
43706;SDS011;61348;53.392;-6.248;2023-01-19T01:35:10;6.30;;;3.65;;
43706;SDS011;61348;53.392;-6.248;2023-01-19T01:37:37;11.05;;;3.50;;
43706;SDS011;61348;53.392;-6.248;2023-01-19T01:40:05;8.57;;;4.10;;
43706;SDS011;61348;53.392;-6.248;2023-01-19T01:42:32;9.77;;;4.07;;
43706;SDS011;61348;53.392;-6.248;2023-01-19T01:45:00;9.05;;;3.42;;
43706;SDS011;61348;53.392;-6.248;2023-01-19T01:50:23;6.80;;;3.10;;
43706;SDS011;61348;53.392;-6.248;2023-01-19T01:52:51;10.75;;;4.05;;
43706;SDS011;61348;53.392;-6.248;2023-01-19T01:58:02;8.80;;;3.35;;
43706;SDS011;61348;53.392;-6.248;2023-01-19T02:00:31;7.28;;;3.67;;
43706;SDS011;61348;53.392;-6.248;2023-01-19T02:03:18;11.95;;;4.00;;
43706;SDS011;61348;53.392;-6.248;2023-01-19T02:05:47;6.57;;;3.10;;
43706;SDS011;61348;53.392;-6.248;2023-01-19T02:08:16;6.15;;;3.90;;
43706;SDS011;61348;53.392;-6.248;2023-01-19T02:11:06;7.32;;;3.70;;
43706;SDS011;61348;53.392;-6.248;2023-01-19T02:13:52;8.07;;;2.88;;
43706;SDS011;61348;53.392;-6.248;2023-01-19T02:16:19;8.13;;;3.25;;
43706;SDS011;61348;53.392;-6.248;2023-01-19T02:18:46;5.47;;;2.88;;
43706;SDS011;61348;53.392;-6.248;2023-01-19T02:23:49;9.85;;;3.42;;
43706;SDS011;61348;53.392;-6.248;2023-01-19T02:29:00;6.25;;;2.72;;
43706;SDS011;61348;53.392;-6.248;2023-01-19T02:31:30;5.82;;;3.00;;
43706;SDS011;61348;53.392;-6.248;2023-01-19T02:33:59;6.32;;;2.88;;
43706;SDS011;61348;53.392;-6.248;2023-01-19T02:36:37;9.00;;;4.82;;
43706;SDS011;61348;53.392;-6.248;2023-01-19T02:39:08;5.05;;;2.30;;
43706;SDS011;61348;53.392;-6.248;2023-01-19T02:41:43;6.70;;;2.75;;
43706;SDS011;61348;53.392;-6.248;2023-01-19T02:44:17;9.82;;;2.53;;
43706;SDS011;61348;53.392;-6.248;2023-01-19T02:46:46;6.97;;;2.78;;
43706;SDS011;61348;53.392;-6.248;2023-01-19T02:49:13;4.43;;;1.88;;
43706;SDS011;61348;53.392;-6.248;2023-01-19T02:51:41;4.22;;;2.70;;
43706;SDS011;61348;53.392;-6.248;2023-01-19T02:54:15;3.58;;;2.90;;
43706;SDS011;61348;53.392;-6.248;2023-01-19T02:57:11;5.53;;;3.08;;
43706;SDS011;61348;53.392;-6.248;2023-01-19T03:02:25;3.70;;;2.58;;
43706;SDS011;61348;53.392;-6.248;2023-01-19T03:16:18;12.15;;;2.22;;
43706;SDS011;61348;53.392;-6.248;2023-01-19T03:19:31;10.07;;;2.50;;
43706;SDS011;61348;53.392;-6.248;2023-01-19T03:21:38;5.10;;;1.85;;
43706;SDS011;61348;53.392;-6.248;2023-01-19T03:24:08;12.13;;;2.25;;
43706;SDS011;61348;53.392;-6.248;2023-01-19T03:26:38;8.57;;;2.28;;
43706;SDS011;61348;53.392;-6.248;2023-01-19T03:29:09;6.80;;;2.10;;
43706;SDS011;61348;53.392;-6.248;2023-01-19T03:31:39;3.97;;;2.33;;
43706;SDS011;61348;53.392;-6.248;2023-01-19T03:34:10;4.15;;;2.30;;
43706;SDS011;61348;53.392;-6.248;2023-01-19T03:36:48;5.32;;;2.78;;
43706;SDS011;61348;53.392;-6.248;2023-01-19T03:39:18;4.18;;;1.98;;
43706;SDS011;61348;53.392;-6.248;2023-01-19T03:41:48;7.85;;;2.08;;
43706;SDS011;61348;53.392;-6.248;2023-01-19T03:44:20;5.53;;;1.83;;
43706;SDS011;61348;53.392;-6.248;2023-01-19T03:46:48;8.65;;;1.80;;
43706;SDS011;61348;53.392;-6.248;2023-01-19T03:49:16;3.25;;;1.60;;
43706;SDS011;61348;53.392;-6.248;2023-01-19T03:51:43;8.43;;;2.47;;
43706;SDS011;61348;53.392;-6.248;2023-01-19T03:54:10;7.18;;;2.22;;
43706;SDS011;61348;53.392;-6.248;2023-01-19T03:56:37;13.77;;;2.53;;
43706;SDS011;61348;53.392;-6.248;2023-01-19T03:59:04;4.15;;;2.03;;
43706;SDS011;61348;53.392;-6.248;2023-01-19T04:01:33;4.15;;;1.73;;
43706;SDS011;61348;53.392;-6.248;2023-01-19T04:04:00;12.35;;;2.65;;
43706;SDS011;61348;53.392;-6.248;2023-01-19T04:06:27;4.93;;;1.70;;
43706;SDS011;61348;53.392;-6.248;2023-01-19T04:08:53;3.88;;;2.30;;
43706;SDS011;61348;53.392;-6.248;2023-01-19T04:11:20;6.43;;;2.58;;
43706;SDS011;61348;53.392;-6.248;2023-01-19T04:13:47;7.47;;;2.50;;
43706;SDS011;61348;53.392;-6.248;2023-01-19T04:16:13;3.80;;;1.70;;
43706;SDS011;61348;53.392;-6.248;2023-01-19T04:18:46;4.45;;;2.13;;
43706;SDS011;61348;53.392;-6.248;2023-01-19T04:21:13;7.00;;;1.90;;
43706;SDS011;61348;53.392;-6.248;2023-01-19T04:23:40;6.53;;;1.77;;
43706;SDS011;61348;53.392;-6.248;2023-01-19T04:26:09;5.80;;;1.95;;
43706;SDS011;61348;53.392;-6.248;2023-01-19T04:28:36;5.00;;;2.08;;
43706;SDS011;61348;53.392;-6.248;2023-01-19T04:31:03;10.05;;;2.97;;
43706;SDS011;61348;53.392;-6.248;2023-01-19T04:33:32;7.45;;;2.55;;
43706;SDS011;61348;53.392;-6.248;2023-01-19T04:35:59;3.53;;;1.98;;
43706;SDS011;61348;53.392;-6.248;2023-01-19T04:38:26;4.55;;;2.38;;
43706;SDS011;61348;53.392;-6.248;2023-01-19T04:40:53;7.38;;;2.33;;
43706;SDS011;61348;53.392;-6.248;2023-01-19T04:43:21;10.05;;;3.17;;
43706;SDS011;61348;53.392;-6.248;2023-01-19T04:45:48;5.35;;;1.85;;
43706;SDS011;61348;53.392;-6.248;2023-01-19T04:48:15;6.85;;;1.77;;
43706;SDS011;61348;53.392;-6.248;2023-01-19T04:50:44;5.90;;;1.70;;
43706;SDS011;61348;53.392;-6.248;2023-01-19T04:53:10;7.65;;;2.72;;
43706;SDS011;61348;53.392;-6.248;2023-01-19T04:55:39;5.75;;;2.10;;
43706;SDS011;61348;53.392;-6.248;2023-01-19T04:58:05;6.47;;;1.92;;
43706;SDS011;61348;53.392;-6.248;2023-01-19T05:00:32;4.40;;;1.50;;
43706;SDS011;61348;53.392;-6.248;2023-01-19T05:02:59;3.92;;;1.63;;
43706;SDS011;61348;53.392;-6.248;2023-01-19T05:05:27;5.55;;;2.08;;
43706;SDS011;61348;53.392;-6.248;2023-01-19T05:07:54;1.95;;;1.40;;
43706;SDS011;61348;53.392;-6.248;2023-01-19T05:10:20;4.35;;;2.13;;
43706;SDS011;61348;53.392;-6.248;2023-01-19T05:12:47;2.60;;;2.10;;
43706;SDS011;61348;53.392;-6.248;2023-01-19T05:15:14;4.07;;;1.73;;
43706;SDS011;61348;53.392;-6.248;2023-01-19T05:17:41;2.63;;;2.03;;
43706;SDS011;61348;53.392;-6.248;2023-01-19T05:20:09;3.20;;;1.60;;
43706;SDS011;61348;53.392;-6.248;2023-01-19T05:22:40;3.35;;;1.77;;
43706;SDS011;61348;53.392;-6.248;2023-01-19T05:25:06;4.07;;;2.15;;
43706;SDS011;61348;53.392;-6.248;2023-01-19T05:27:34;4.18;;;1.70;;
43706;SDS011;61348;53.392;-6.248;2023-01-19T05:30:02;4.10;;;2.45;;
43706;SDS011;61348;53.392;-6.248;2023-01-19T05:32:30;2.65;;;1.52;;
43706;SDS011;61348;53.392;-6.248;2023-01-19T05:34:56;6.93;;;2.00;;
43706;SDS011;61348;53.392;-6.248;2023-01-19T05:37:23;6.32;;;1.98;;
43706;SDS011;61348;53.392;-6.248;2023-01-19T05:39:50;6.03;;;1.98;;
43706;SDS011;61348;53.392;-6.248;2023-01-19T05:42:17;3.17;;;1.95;;
43706;SDS011;61348;53.392;-6.248;2023-01-19T05:44:43;4.78;;;1.88;;
43706;SDS011;61348;53.392;-6.248;2023-01-19T05:47:10;4.53;;;1.45;;
43706;SDS011;61348;53.392;-6.248;2023-01-19T05:49:37;3.92;;;1.25;;
43706;SDS011;61348;53.392;-6.248;2023-01-19T05:52:04;6.95;;;1.55;;
43706;SDS011;61348;53.392;-6.248;2023-01-19T05:54:31;3.40;;;2.00;;
43706;SDS011;61348;53.392;-6.248;2023-01-19T05:56:58;4.32;;;1.90;;
43706;SDS011;61348;53.392;-6.248;2023-01-19T05:59:25;6.50;;;2.40;;
43706;SDS011;61348;53.392;-6.248;2023-01-19T06:01:52;11.35;;;2.65;;
43706;SDS011;61348;53.392;-6.248;2023-01-19T06:04:19;4.50;;;1.98;;
43706;SDS011;61348;53.392;-6.248;2023-01-19T06:06:47;5.38;;;1.85;;
43706;SDS011;61348;53.392;-6.248;2023-01-19T06:09:14;4.40;;;1.50;;
43706;SDS011;61348;53.392;-6.248;2023-01-19T06:11:43;5.85;;;2.85;;
43706;SDS011;61348;53.392;-6.248;2023-01-19T06:14:10;6.85;;;2.38;;
43706;SDS011;61348;53.392;-6.248;2023-01-19T06:16:37;3.35;;;1.63;;
43706;SDS011;61348;53.392;-6.248;2023-01-19T06:19:04;7.40;;;2.28;;
43706;SDS011;61348;53.392;-6.248;2023-01-19T06:21:31;6.80;;;1.45;;
43706;SDS011;61348;53.392;-6.248;2023-01-19T06:23:58;3.47;;;2.30;;
43706;SDS011;61348;53.392;-6.248;2023-01-19T06:26:25;6.32;;;2.50;;
43706;SDS011;61348;53.392;-6.248;2023-01-19T06:28:52;7.75;;;2.78;;
43706;SDS011;61348;53.392;-6.248;2023-01-19T06:31:21;6.55;;;2.47;;
43706;SDS011;61348;53.392;-6.248;2023-01-19T06:33:48;6.55;;;2.17;;
43706;SDS011;61348;53.392;-6.248;2023-01-19T06:36:15;8.10;;;2.13;;
43706;SDS011;61348;53.392;-6.248;2023-01-19T06:38:42;3.47;;;1.73;;
43706;SDS011;61348;53.392;-6.248;2023-01-19T06:41:08;3.75;;;1.75;;
43706;SDS011;61348;53.392;-6.248;2023-01-19T06:43:35;5.47;;;2.05;;
43706;SDS011;61348;53.392;-6.248;2023-01-19T06:46:01;7.85;;;2.30;;
43706;SDS011;61348;53.392;-6.248;2023-01-19T06:48:29;8.68;;;2.13;;
43706;SDS011;61348;53.392;-6.248;2023-01-19T06:50:56;6.65;;;2.17;;
43706;SDS011;61348;53.392;-6.248;2023-01-19T06:53:25;20.48;;;4.18;;
43706;SDS011;61348;53.392;-6.248;2023-01-19T06:55:57;3.20;;;1.60;;
43706;SDS011;61348;53.392;-6.248;2023-01-19T06:58:29;8.63;;;2.17;;
43706;SDS011;61348;53.392;-6.248;2023-01-19T07:00:59;5.30;;;2.35;;
43706;SDS011;61348;53.392;-6.248;2023-01-19T07:03:28;6.00;;;2.05;;
43706;SDS011;61348;53.392;-6.248;2023-01-19T07:05:55;4.15;;;1.60;;
43706;SDS011;61348;53.392;-6.248;2023-01-19T07:08:22;4.82;;;2.00;;
43706;SDS011;61348;53.392;-6.248;2023-01-19T07:10:50;5.68;;;2.13;;
43706;SDS011;61348;53.392;-6.248;2023-01-19T07:13:37;5.90;;;1.92;;
43706;SDS011;61348;53.392;-6.248;2023-01-19T07:16:06;8.95;;;1.85;;
43706;SDS011;61348;53.392;-6.248;2023-01-19T07:18:35;7.18;;;2.15;;
43706;SDS011;61348;53.392;-6.248;2023-01-19T07:21:03;7.15;;;2.50;;
43706;SDS011;61348;53.392;-6.248;2023-01-19T07:23:31;4.90;;;1.73;;
43706;SDS011;61348;53.392;-6.248;2023-01-19T07:25:58;5.97;;;2.38;;
43706;SDS011;61348;53.392;-6.248;2023-01-19T07:28:29;7.10;;;1.80;;
43706;SDS011;61348;53.392;-6.248;2023-01-19T07:30:57;5.53;;;1.92;;
43706;SDS011;61348;53.392;-6.248;2023-01-19T07:33:24;4.68;;;2.17;;
43706;SDS011;61348;53.392;-6.248;2023-01-19T07:35:51;4.70;;;2.17;;
43706;SDS011;61348;53.392;-6.248;2023-01-19T07:38:18;3.67;;;2.13;;
43706;SDS011;61348;53.392;-6.248;2023-01-19T07:40:45;6.03;;;2.08;;
43706;SDS011;61348;53.392;-6.248;2023-01-19T07:43:12;9.57;;;2.63;;
43706;SDS011;61348;53.392;-6.248;2023-01-19T07:45:40;7.63;;;2.63;;
43706;SDS011;61348;53.392;-6.248;2023-01-19T07:48:07;6.57;;;2.10;;
43706;SDS011;61348;53.392;-6.248;2023-01-19T07:50:34;4.88;;;2.53;;
43706;SDS011;61348;53.392;-6.248;2023-01-19T07:53:04;7.55;;;2.40;;
43706;SDS011;61348;53.392;-6.248;2023-01-19T07:55:33;6.55;;;2.90;;
43706;SDS011;61348;53.392;-6.248;2023-01-19T07:58:02;6.72;;;3.22;;
43706;SDS011;61348;53.392;-6.248;2023-01-19T08:00:36;7.10;;;2.58;;
43706;SDS011;61348;53.392;-6.248;2023-01-19T08:03:03;5.15;;;3.05;;
43706;SDS011;61348;53.392;-6.248;2023-01-19T08:05:31;4.60;;;2.22;;
43706;SDS011;61348;53.392;-6.248;2023-01-19T08:07:58;4.43;;;2.28;;
43706;SDS011;61348;53.392;-6.248;2023-01-19T08:10:26;7.70;;;2.67;;
43706;SDS011;61348;53.392;-6.248;2023-01-19T08:12:54;6.68;;;2.08;;
43706;SDS011;61348;53.392;-6.248;2023-01-19T08:15:22;7.03;;;2.58;;
43706;SDS011;61348;53.392;-6.248;2023-01-19T08:17:53;6.07;;;2.53;;
43706;SDS011;61348;53.392;-6.248;2023-01-19T08:20:27;8.32;;;2.65;;
43706;SDS011;61348;53.392;-6.248;2023-01-19T08:22:54;7.75;;;2.60;;
43706;SDS011;61348;53.392;-6.248;2023-01-19T08:25:34;4.75;;;2.30;;
43706;SDS011;61348;53.392;-6.248;2023-01-19T08:28:03;6.47;;;3.22;;
43706;SDS011;61348;53.392;-6.248;2023-01-19T08:30:31;9.95;;;2.92;;
43706;SDS011;61348;53.392;-6.248;2023-01-19T08:32:58;6.32;;;3.20;;
43706;SDS011;61348;53.392;-6.248;2023-01-19T08:35:34;12.80;;;4.00;;
43706;SDS011;61348;53.392;-6.248;2023-01-19T08:38:03;6.47;;;3.42;;
43706;SDS011;61348;53.392;-6.248;2023-01-19T08:40:32;9.73;;;3.90;;
43706;SDS011;61348;53.392;-6.248;2023-01-19T08:43:11;11.90;;;3.35;;
43706;SDS011;61348;53.392;-6.248;2023-01-19T08:45:44;5.07;;;2.83;;
43706;SDS011;61348;53.392;-6.248;2023-01-19T08:48:15;4.93;;;3.40;;
43706;SDS011;61348;53.392;-6.248;2023-01-19T08:50:44;9.43;;;2.80;;
43706;SDS011;61348;53.392;-6.248;2023-01-19T08:53:12;5.43;;;2.78;;
43706;SDS011;61348;53.392;-6.248;2023-01-19T08:55:40;5.55;;;3.13;;
43706;SDS011;61348;53.392;-6.248;2023-01-19T08:58:07;6.30;;;3.03;;
43706;SDS011;61348;53.392;-6.248;2023-01-19T09:00:35;5.45;;;2.88;;
43706;SDS011;61348;53.392;-6.248;2023-01-19T09:03:04;11.82;;;5.63;;
43706;SDS011;61348;53.392;-6.248;2023-01-19T09:05:33;12.48;;;5.32;;
43706;SDS011;61348;53.392;-6.248;2023-01-19T09:08:03;15.35;;;4.80;;
43706;SDS011;61348;53.392;-6.248;2023-01-19T09:10:31;12.23;;;5.30;;
43706;SDS011;61348;53.392;-6.248;2023-01-19T09:13:01;16.75;;;4.97;;
43706;SDS011;61348;53.392;-6.248;2023-01-19T09:18:04;10.93;;;4.28;;
43706;SDS011;61348;53.392;-6.248;2023-01-19T09:20:32;7.60;;;3.45;;
43706;SDS011;61348;53.392;-6.248;2023-01-19T09:23:01;8.32;;;3.45;;
43706;SDS011;61348;53.392;-6.248;2023-01-19T09:25:28;12.60;;;3.53;;
43706;SDS011;61348;53.392;-6.248;2023-01-19T09:28:00;17.40;;;3.30;;
43706;SDS011;61348;53.392;-6.248;2023-01-19T09:30:28;7.07;;;3.88;;
43706;SDS011;61348;53.392;-6.248;2023-01-19T09:32:54;8.73;;;2.75;;
43706;SDS011;61348;53.392;-6.248;2023-01-19T09:35:24;9.30;;;3.40;;
43706;SDS011;61348;53.392;-6.248;2023-01-19T09:37:51;8.52;;;2.83;;
43706;SDS011;61348;53.392;-6.248;2023-01-19T09:40:21;14.43;;;5.28;;
43706;SDS011;61348;53.392;-6.248;2023-01-19T09:42:55;11.40;;;3.50;;
43706;SDS011;61348;53.392;-6.248;2023-01-19T09:45:33;9.23;;;3.40;;
43706;SDS011;61348;53.392;-6.248;2023-01-19T09:48:07;7.05;;;3.25;;
43706;SDS011;61348;53.392;-6.248;2023-01-19T09:50:55;10.85;;;3.58;;
43706;SDS011;61348;53.392;-6.248;2023-01-19T09:53:38;14.95;;;3.40;;
43706;SDS011;61348;53.392;-6.248;2023-01-19T09:56:11;13.02;;;4.53;;
43706;SDS011;61348;53.392;-6.248;2023-01-19T09:58:40;14.73;;;4.85;;
43706;SDS011;61348;53.392;-6.248;2023-01-19T10:01:18;17.45;;;4.38;;
43706;SDS011;61348;53.392;-6.248;2023-01-19T10:03:48;16.90;;;4.80;;
43706;SDS011;61348;53.392;-6.248;2023-01-19T10:06:20;15.35;;;3.80;;
43706;SDS011;61348;53.392;-6.248;2023-01-19T10:08:54;25.35;;;4.82;;
43706;SDS011;61348;53.392;-6.248;2023-01-19T10:14:25;7.35;;;3.65;;
43706;SDS011;61348;53.392;-6.248;2023-01-19T10:20:03;10.10;;;3.35;;
43706;SDS011;61348;53.392;-6.248;2023-01-19T10:22:38;7.15;;;3.45;;
43706;SDS011;61348;53.392;-6.248;2023-01-19T10:25:12;14.95;;;3.78;;
43706;SDS011;61348;53.392;-6.248;2023-01-19T10:27:44;9.32;;;3.75;;
43706;SDS011;61348;53.392;-6.248;2023-01-19T10:30:22;8.32;;;3.33;;
43706;SDS011;61348;53.392;-6.248;2023-01-19T10:32:51;12.25;;;4.13;;
43706;SDS011;61348;53.392;-6.248;2023-01-19T10:35:20;7.35;;;4.30;;
43706;SDS011;61348;53.392;-6.248;2023-01-19T10:37:51;12.13;;;4.03;;
43706;SDS011;61348;53.392;-6.248;2023-01-19T10:40:30;7.40;;;3.80;;
43706;SDS011;61348;53.392;-6.248;2023-01-19T10:43:46;13.18;;;3.72;;
43706;SDS011;61348;53.392;-6.248;2023-01-19T10:46:13;10.25;;;3.60;;
43706;SDS011;61348;53.392;-6.248;2023-01-19T10:48:53;10.48;;;3.13;;
43706;SDS011;61348;53.392;-6.248;2023-01-19T10:51:21;10.65;;;3.30;;
43706;SDS011;61348;53.392;-6.248;2023-01-19T10:53:56;12.50;;;3.95;;
43706;SDS011;61348;53.392;-6.248;2023-01-19T10:56:27;5.60;;;2.58;;
43706;SDS011;61348;53.392;-6.248;2023-01-19T10:59:00;9.23;;;3.97;;
43706;SDS011;61348;53.392;-6.248;2023-01-19T11:01:29;11.70;;;3.13;;
43706;SDS011;61348;53.392;-6.248;2023-01-19T11:04:18;6.22;;;2.63;;
43706;SDS011;61348;53.392;-6.248;2023-01-19T11:07:03;4.70;;;2.70;;
43706;SDS011;61348;53.392;-6.248;2023-01-19T11:09:44;7.95;;;3.13;;
43706;SDS011;61348;53.392;-6.248;2023-01-19T11:12:19;9.00;;;4.25;;
43706;SDS011;61348;53.392;-6.248;2023-01-19T11:14:49;8.15;;;3.45;;
43706;SDS011;61348;53.392;-6.248;2023-01-19T11:17:23;11.90;;;3.80;;
43706;SDS011;61348;53.392;-6.248;2023-01-19T11:19:52;11.60;;;5.18;;
43706;SDS011;61348;53.392;-6.248;2023-01-19T11:22:24;11.55;;;4.93;;
43706;SDS011;61348;53.392;-6.248;2023-01-19T11:24:56;7.20;;;4.00;;
43706;SDS011;61348;53.392;-6.248;2023-01-19T11:27:24;11.25;;;3.03;;
43706;SDS011;61348;53.392;-6.248;2023-01-19T11:29:59;8.65;;;4.22;;
43706;SDS011;61348;53.392;-6.248;2023-01-19T11:32:46;13.48;;;4.45;;
43706;SDS011;61348;53.392;-6.248;2023-01-19T11:40:38;12.43;;;4.80;;
43706;SDS011;61348;53.392;-6.248;2023-01-19T11:43:11;11.32;;;3.97;;
43706;SDS011;61348;53.392;-6.248;2023-01-19T11:45:38;9.80;;;4.60;;
43706;SDS011;61348;53.392;-6.248;2023-01-19T11:48:05;9.85;;;4.25;;
43706;SDS011;61348;53.392;-6.248;2023-01-19T11:50:40;7.32;;;3.47;;
43706;SDS011;61348;53.392;-6.248;2023-01-19T11:53:16;10.88;;;3.85;;
43706;SDS011;61348;53.392;-6.248;2023-01-19T11:56:24;7.20;;;3.80;;
43706;SDS011;61348;53.392;-6.248;2023-01-19T11:58:45;10.60;;;4.28;;
43706;SDS011;61348;53.392;-6.248;2023-01-19T12:03:57;5.43;;;3.30;;
43706;SDS011;61348;53.392;-6.248;2023-01-19T12:06:30;6.57;;;2.92;;
43706;SDS011;61348;53.392;-6.248;2023-01-19T12:09:02;6.88;;;3.72;;
43706;SDS011;61348;53.392;-6.248;2023-01-19T12:11:38;7.07;;;2.58;;
43706;SDS011;61348;53.392;-6.248;2023-01-19T12:14:16;9.52;;;3.47;;
43706;SDS011;61348;53.392;-6.248;2023-01-19T12:16:49;7.10;;;3.42;;
43706;SDS011;61348;53.392;-6.248;2023-01-19T12:19:21;10.82;;;4.35;;
43706;SDS011;61348;53.392;-6.248;2023-01-19T12:21:59;13.60;;;4.70;;
43706;SDS011;61348;53.392;-6.248;2023-01-19T12:24:30;10.43;;;4.40;;
43706;SDS011;61348;53.392;-6.248;2023-01-19T12:27:16;8.95;;;4.28;;
43706;SDS011;61348;53.392;-6.248;2023-01-19T12:30:16;9.20;;;4.60;;
43706;SDS011;61348;53.392;-6.248;2023-01-19T12:32:46;6.82;;;2.95;;
43706;SDS011;61348;53.392;-6.248;2023-01-19T12:41:22;5.47;;;2.35;;
43706;SDS011;61348;53.392;-6.248;2023-01-19T12:46:35;8.20;;;3.15;;
43706;SDS011;61348;53.392;-6.248;2023-01-19T12:49:05;8.02;;;3.28;;
43706;SDS011;61348;53.392;-6.248;2023-01-19T12:51:37;5.80;;;3.08;;
43706;SDS011;61348;53.392;-6.248;2023-01-19T12:54:05;7.70;;;3.25;;
43706;SDS011;61348;53.392;-6.248;2023-01-19T12:56:35;4.28;;;2.47;;
43706;SDS011;61348;53.392;-6.248;2023-01-19T12:59:03;6.22;;;3.10;;
43706;SDS011;61348;53.392;-6.248;2023-01-19T13:01:31;4.88;;;2.63;;
43706;SDS011;61348;53.392;-6.248;2023-01-19T13:09:30;5.45;;;2.53;;
43706;SDS011;61348;53.392;-6.248;2023-01-19T13:14:47;6.38;;;2.30;;
43706;SDS011;61348;53.392;-6.248;2023-01-19T13:17:23;5.63;;;2.35;;
43706;SDS011;61348;53.392;-6.248;2023-01-19T13:20:21;10.70;;;3.15;;
43706;SDS011;61348;53.392;-6.248;2023-01-19T13:25:34;8.48;;;3.03;;
43706;SDS011;61348;53.392;-6.248;2023-01-19T13:28:01;8.02;;;2.97;;
43706;SDS011;61348;53.392;-6.248;2023-01-19T13:30:34;5.38;;;2.45;;
43706;SDS011;61348;53.392;-6.248;2023-01-19T13:33:04;4.45;;;2.05;;
43706;SDS011;61348;53.392;-6.248;2023-01-19T13:35:38;4.50;;;2.50;;
43706;SDS011;61348;53.392;-6.248;2023-01-19T13:38:05;2.90;;;1.90;;
43706;SDS011;61348;53.392;-6.248;2023-01-19T13:40:36;6.10;;;2.15;;
43706;SDS011;61348;53.392;-6.248;2023-01-19T13:43:05;3.83;;;2.67;;
43706;SDS011;61348;53.392;-6.248;2023-01-19T13:45:45;8.70;;;3.90;;
43706;SDS011;61348;53.392;-6.248;2023-01-19T13:48:18;6.20;;;3.20;;
43706;SDS011;61348;53.392;-6.248;2023-01-19T13:51:02;8.18;;;3.95;;
43706;SDS011;61348;53.392;-6.248;2023-01-19T13:53:31;5.87;;;2.87;;
43706;SDS011;61348;53.392;-6.248;2023-01-19T13:56:04;7.50;;;2.35;;
43706;SDS011;61348;53.392;-6.248;2023-01-19T13:58:32;6.90;;;2.67;;
43706;SDS011;61348;53.392;-6.248;2023-01-19T14:00:59;5.38;;;2.60;;
43706;SDS011;61348;53.392;-6.248;2023-01-19T14:03:26;4.97;;;2.13;;
43706;SDS011;61348;53.392;-6.248;2023-01-19T14:05:53;7.00;;;3.05;;
43706;SDS011;61348;53.392;-6.248;2023-01-19T14:08:20;5.20;;;2.15;;
43706;SDS011;61348;53.392;-6.248;2023-01-19T14:13:28;5.95;;;2.88;;
43706;SDS011;61348;53.392;-6.248;2023-01-19T14:15:58;4.35;;;1.60;;
43706;SDS011;61348;53.392;-6.248;2023-01-19T14:18:30;4.45;;;1.40;;
43706;SDS011;61348;53.392;-6.248;2023-01-19T14:23:38;6.32;;;3.20;;
43706;SDS011;61348;53.392;-6.248;2023-01-19T14:31:45;9.20;;;2.05;;
43706;SDS011;61348;53.392;-6.248;2023-01-19T14:34:33;5.03;;;1.65;;
43706;SDS011;61348;53.392;-6.248;2023-01-19T14:37:17;3.08;;;1.75;;
43706;SDS011;61348;53.392;-6.248;2023-01-19T14:39:57;9.90;;;2.28;;
43706;SDS011;61348;53.392;-6.248;2023-01-19T14:42:28;5.60;;;2.92;;
43706;SDS011;61348;53.392;-6.248;2023-01-19T14:44:59;1.83;;;1.20;;
43706;SDS011;61348;53.392;-6.248;2023-01-19T14:49:55;5.22;;;1.92;;
43706;SDS011;61348;53.392;-6.248;2023-01-19T14:52:27;5.70;;;2.60;;
43706;SDS011;61348;53.392;-6.248;2023-01-19T14:55:00;5.63;;;1.35;;
43706;SDS011;61348;53.392;-6.248;2023-01-19T14:57:29;5.25;;;1.92;;
43706;SDS011;61348;53.392;-6.248;2023-01-19T14:59:55;3.08;;;1.60;;
43706;SDS011;61348;53.392;-6.248;2023-01-19T15:02:22;3.75;;;1.67;;
43706;SDS011;61348;53.392;-6.248;2023-01-19T15:04:49;4.80;;;2.20;;
43706;SDS011;61348;53.392;-6.248;2023-01-19T15:07:21;4.30;;;2.08;;
43706;SDS011;61348;53.392;-6.248;2023-01-19T15:09:49;2.05;;;1.65;;
43706;SDS011;61348;53.392;-6.248;2023-01-19T15:12:16;3.33;;;1.48;;
43706;SDS011;61348;53.392;-6.248;2023-01-19T15:14:44;2.92;;;1.88;;
43706;SDS011;61348;53.392;-6.248;2023-01-19T15:17:18;6.20;;;1.77;;
43706;SDS011;61348;53.392;-6.248;2023-01-19T15:19:52;8.45;;;2.58;;
43706;SDS011;61348;53.392;-6.248;2023-01-19T15:22:20;5.13;;;3.05;;
43706;SDS011;61348;53.392;-6.248;2023-01-19T15:24:48;4.18;;;2.20;;
43706;SDS011;61348;53.392;-6.248;2023-01-19T15:27:15;6.68;;;2.28;;
43706;SDS011;61348;53.392;-6.248;2023-01-19T15:29:42;5.60;;;2.28;;
43706;SDS011;61348;53.392;-6.248;2023-01-19T15:32:12;2.72;;;1.80;;
43706;SDS011;61348;53.392;-6.248;2023-01-19T15:34:40;6.22;;;2.85;;
43706;SDS011;61348;53.392;-6.248;2023-01-19T15:37:07;7.55;;;1.90;;
43706;SDS011;61348;53.392;-6.248;2023-01-19T15:39:34;4.93;;;2.13;;
43706;SDS011;61348;53.392;-6.248;2023-01-19T15:42:01;5.07;;;2.60;;
43706;SDS011;61348;53.392;-6.248;2023-01-19T15:44:28;14.02;;;3.30;;
43706;SDS011;61348;53.392;-6.248;2023-01-19T15:46:55;10.77;;;3.47;;
43706;SDS011;61348;53.392;-6.248;2023-01-19T15:49:22;9.93;;;3.72;;
43706;SDS011;61348;53.392;-6.248;2023-01-19T15:51:49;6.70;;;3.15;;
43706;SDS011;61348;53.392;-6.248;2023-01-19T15:54:16;8.93;;;4.07;;
43706;SDS011;61348;53.392;-6.248;2023-01-19T15:56:43;9.00;;;3.45;;
43706;SDS011;61348;53.392;-6.248;2023-01-19T15:59:10;5.50;;;2.53;;
43706;SDS011;61348;53.392;-6.248;2023-01-19T16:01:37;8.85;;;2.38;;
43706;SDS011;61348;53.392;-6.248;2023-01-19T16:04:06;4.13;;;2.17;;